sensor_id;sensor_type;location;lat;lon;timestamp;pressure;altitude;pressure_sealevel;temperature;humidity
16525;BME280;8375;33.594;-117.718;2022-12-07T00:01:38;100473.41;;;15.08;70.95
16525;BME280;8375;33.594;-117.718;2022-12-07T00:04:07;100477.41;;;15.13;70.55
16525;BME280;8375;33.594;-117.718;2022-12-07T00:06:37;100472.16;;;15.13;69.52
16525;BME280;8375;33.594;-117.718;2022-12-07T00:09:09;100475.75;;;15.11;69.12
16525;BME280;8375;33.594;-117.718;2022-12-07T00:11:38;100469.03;;;14.99;69.04
16525;BME280;8375;33.594;-117.718;2022-12-07T00:14:11;100476.34;;;14.95;68.24
16525;BME280;8375;33.594;-117.718;2022-12-07T00:16:40;100476.75;;;14.91;68.81
16525;BME280;8375;33.594;-117.718;2022-12-07T00:19:10;100472.22;;;14.83;67.75
16525;BME280;8375;33.594;-117.718;2022-12-07T00:21:40;100474.44;;;14.78;68.42
16525;BME280;8375;33.594;-117.718;2022-12-07T00:24:10;100470.81;;;14.69;69.85
16525;BME280;8375;33.594;-117.718;2022-12-07T00:26:40;100481.00;;;14.62;69.78
16525;BME280;8375;33.594;-117.718;2022-12-07T00:29:14;100481.28;;;14.49;70.12
16525;BME280;8375;33.594;-117.718;2022-12-07T00:31:43;100480.44;;;14.39;70.48
16525;BME280;8375;33.594;-117.718;2022-12-07T00:34:14;100475.75;;;14.33;70.93
16525;BME280;8375;33.594;-117.718;2022-12-07T00:36:43;100480.97;;;14.23;71.48
16525;BME280;8375;33.594;-117.718;2022-12-07T00:39:12;100483.81;;;14.10;72.56
16525;BME280;8375;33.594;-117.718;2022-12-07T00:41:41;100475.16;;;14.00;72.74
16525;BME280;8375;33.594;-117.718;2022-12-07T00:44:11;100477.59;;;13.91;72.97
16525;BME280;8375;33.594;-117.718;2022-12-07T00:46:40;100474.81;;;13.83;73.71
16525;BME280;8375;33.594;-117.718;2022-12-07T00:49:09;100476.84;;;13.70;75.01
16525;BME280;8375;33.594;-117.718;2022-12-07T00:51:38;100478.06;;;13.66;75.00
16525;BME280;8375;33.594;-117.718;2022-12-07T00:54:07;100477.50;;;13.62;74.84
16525;BME280;8375;33.594;-117.718;2022-12-07T00:56:35;100473.63;;;13.56;75.26
16525;BME280;8375;33.594;-117.718;2022-12-07T00:59:04;100479.38;;;13.50;75.34
16525;BME280;8375;33.594;-117.718;2022-12-07T01:01:35;100473.88;;;13.43;75.50
16525;BME280;8375;33.594;-117.718;2022-12-07T01:04:05;100474.34;;;13.37;75.52
16525;BME280;8375;33.594;-117.718;2022-12-07T01:06:34;100472.13;;;13.32;76.06
16525;BME280;8375;33.594;-117.718;2022-12-07T01:09:03;100481.66;;;13.22;76.67
16525;BME280;8375;33.594;-117.718;2022-12-07T01:11:33;100485.75;;;13.15;76.94
16525;BME280;8375;33.594;-117.718;2022-12-07T01:14:02;100488.16;;;13.06;77.89
16525;BME280;8375;33.594;-117.718;2022-12-07T01:16:31;100493.88;;;13.00;78.40
16525;BME280;8375;33.594;-117.718;2022-12-07T01:19:03;100497.34;;;12.89;79.25
16525;BME280;8375;33.594;-117.718;2022-12-07T01:21:33;100494.69;;;12.80;80.32
16525;BME280;8375;33.594;-117.718;2022-12-07T01:24:04;100497.78;;;12.73;80.75
16525;BME280;8375;33.594;-117.718;2022-12-07T01:26:33;100491.28;;;12.68;80.90
16525;BME280;8375;33.594;-117.718;2022-12-07T01:29:02;100490.97;;;12.61;81.60
16525;BME280;8375;33.594;-117.718;2022-12-07T01:31:31;100499.03;;;12.58;81.54
16525;BME280;8375;33.594;-117.718;2022-12-07T01:34:00;100500.47;;;12.51;82.08
16525;BME280;8375;33.594;-117.718;2022-12-07T01:36:32;100504.97;;;12.49;82.02
16525;BME280;8375;33.594;-117.718;2022-12-07T01:39:04;100508.41;;;12.49;82.28
16525;BME280;8375;33.594;-117.718;2022-12-07T01:41:35;100515.91;;;12.31;82.94
16525;BME280;8375;33.594;-117.718;2022-12-07T01:44:15;100519.56;;;12.28;83.38
16525;BME280;8375;33.594;-117.718;2022-12-07T01:46:45;100522.41;;;12.25;83.29
16525;BME280;8375;33.594;-117.718;2022-12-07T01:49:26;100523.97;;;12.16;83.57
16525;BME280;8375;33.594;-117.718;2022-12-07T01:52:05;100533.94;;;12.11;83.99
16525;BME280;8375;33.594;-117.718;2022-12-07T01:54:36;100533.78;;;12.13;83.73
16525;BME280;8375;33.594;-117.718;2022-12-07T01:57:06;100540.31;;;12.07;83.83
16525;BME280;8375;33.594;-117.718;2022-12-07T01:59:36;100543.41;;;12.01;83.92
16525;BME280;8375;33.594;-117.718;2022-12-07T02:02:13;100543.00;;;11.94;84.66
16525;BME280;8375;33.594;-117.718;2022-12-07T02:04:46;100544.31;;;11.88;84.85
16525;BME280;8375;33.594;-117.718;2022-12-07T02:07:17;100536.38;;;11.90;84.83
16525;BME280;8375;33.594;-117.718;2022-12-07T02:09:46;100546.19;;;11.86;85.00
16525;BME280;8375;33.594;-117.718;2022-12-07T02:12:18;100542.75;;;11.74;85.64
16525;BME280;8375;33.594;-117.718;2022-12-07T02:14:47;100540.53;;;11.70;86.07
16525;BME280;8375;33.594;-117.718;2022-12-07T02:17:23;100545.81;;;11.68;85.84
16525;BME280;8375;33.594;-117.718;2022-12-07T02:20:21;100553.38;;;11.60;86.49
16525;BME280;8375;33.594;-117.718;2022-12-07T02:23:19;100553.75;;;11.55;86.59
16525;BME280;8375;33.594;-117.718;2022-12-07T02:26:03;100562.34;;;11.56;86.56
16525;BME280;8375;33.594;-117.718;2022-12-07T02:28:37;100553.50;;;11.47;87.45
16525;BME280;8375;33.594;-117.718;2022-12-07T02:31:12;100554.75;;;11.41;87.26
16525;BME280;8375;33.594;-117.718;2022-12-07T02:33:45;100559.69;;;11.33;88.22
16525;BME280;8375;33.594;-117.718;2022-12-07T02:36:20;100558.88;;;11.33;88.46
16525;BME280;8375;33.594;-117.718;2022-12-07T02:38:55;100560.06;;;11.28;88.54
16525;BME280;8375;33.594;-117.718;2022-12-07T02:41:29;100560.28;;;11.25;88.78
16525;BME280;8375;33.594;-117.718;2022-12-07T02:44:01;100557.56;;;11.27;88.86
16525;BME280;8375;33.594;-117.718;2022-12-07T02:46:35;100572.22;;;11.28;88.94
16525;BME280;8375;33.594;-117.718;2022-12-07T02:49:05;100563.13;;;11.22;89.68
16525;BME280;8375;33.594;-117.718;2022-12-07T02:51:39;100564.06;;;11.21;90.04
16525;BME280;8375;33.594;-117.718;2022-12-07T02:54:12;100566.25;;;11.14;89.94
16525;BME280;8375;33.594;-117.718;2022-12-07T02:56:48;100569.66;;;11.04;90.64
16525;BME280;8375;33.594;-117.718;2022-12-07T02:59:26;100576.97;;;10.98;90.82
16525;BME280;8375;33.594;-117.718;2022-12-07T03:02:09;100576.84;;;11.00;90.41
16525;BME280;8375;33.594;-117.718;2022-12-07T03:04:47;100582.59;;;10.92;90.84
16525;BME280;8375;33.594;-117.718;2022-12-07T03:07:29;100580.09;;;10.91;90.74
16525;BME280;8375;33.594;-117.718;2022-12-07T03:10:08;100578.16;;;10.81;91.45
16525;BME280;8375;33.594;-117.718;2022-12-07T03:12:45;100580.88;;;10.80;91.69
16525;BME280;8375;33.594;-117.718;2022-12-07T03:15:20;100583.91;;;10.74;92.12
16525;BME280;8375;33.594;-117.718;2022-12-07T03:17:55;100588.72;;;10.67;93.11
16525;BME280;8375;33.594;-117.718;2022-12-07T03:20:25;100589.56;;;10.67;93.17
16525;BME280;8375;33.594;-117.718;2022-12-07T03:22:57;100588.63;;;10.68;93.28
16525;BME280;8375;33.594;-117.718;2022-12-07T03:25:27;100581.13;;;10.64;93.35
16525;BME280;8375;33.594;-117.718;2022-12-07T03:27:59;100588.13;;;10.63;93.58
16525;BME280;8375;33.594;-117.718;2022-12-07T03:30:33;100591.53;;;10.64;93.71
16525;BME280;8375;33.594;-117.718;2022-12-07T03:33:08;100582.69;;;10.66;94.01
16525;BME280;8375;33.594;-117.718;2022-12-07T03:35:41;100588.13;;;10.63;94.71
16525;BME280;8375;33.594;-117.718;2022-12-07T03:38:15;100592.25;;;10.66;94.27
16525;BME280;8375;33.594;-117.718;2022-12-07T03:40:49;100596.94;;;10.61;94.63
16525;BME280;8375;33.594;-117.718;2022-12-07T03:43:21;100585.59;;;10.62;94.99
16525;BME280;8375;33.594;-117.718;2022-12-07T03:45:58;100589.06;;;10.62;95.33
16525;BME280;8375;33.594;-117.718;2022-12-07T03:48:35;100592.59;;;10.61;95.48
16525;BME280;8375;33.594;-117.718;2022-12-07T03:51:11;100598.19;;;10.55;95.58
16525;BME280;8375;33.594;-117.718;2022-12-07T03:53:45;100591.13;;;10.57;95.94
16525;BME280;8375;33.594;-117.718;2022-12-07T03:56:15;100593.13;;;10.53;95.90
16525;BME280;8375;33.594;-117.718;2022-12-07T03:58:44;100598.09;;;10.56;96.00
16525;BME280;8375;33.594;-117.718;2022-12-07T04:01:13;100595.50;;;10.56;95.80
16525;BME280;8375;33.594;-117.718;2022-12-07T04:03:44;100599.03;;;10.55;96.06
16525;BME280;8375;33.594;-117.718;2022-12-07T04:06:13;100592.91;;;10.56;96.25
16525;BME280;8375;33.594;-117.718;2022-12-07T04:08:42;100604.44;;;10.52;96.58
16525;BME280;8375;33.594;-117.718;2022-12-07T04:11:10;100601.63;;;10.55;96.57
16525;BME280;8375;33.594;-117.718;2022-12-07T04:13:39;100604.44;;;10.52;96.15
16525;BME280;8375;33.594;-117.718;2022-12-07T04:16:25;100610.44;;;10.53;96.32
16525;BME280;8375;33.594;-117.718;2022-12-07T04:18:55;100610.44;;;10.53;96.93
16525;BME280;8375;33.594;-117.718;2022-12-07T04:21:25;100608.06;;;10.50;97.00
16525;BME280;8375;33.594;-117.718;2022-12-07T04:23:54;100617.94;;;10.45;97.11
16525;BME280;8375;33.594;-117.718;2022-12-07T04:26:22;100620.53;;;10.32;97.38
16525;BME280;8375;33.594;-117.718;2022-12-07T04:28:51;100623.22;;;10.30;97.28
16525;BME280;8375;33.594;-117.718;2022-12-07T04:31:19;100625.94;;;10.28;97.01
16525;BME280;8375;33.594;-117.718;2022-12-07T04:33:48;100626.97;;;10.26;97.71
16525;BME280;8375;33.594;-117.718;2022-12-07T04:36:19;100621.16;;;10.22;97.81
16525;BME280;8375;33.594;-117.718;2022-12-07T04:38:48;100625.72;;;10.19;97.48
16525;BME280;8375;33.594;-117.718;2022-12-07T04:41:17;100625.94;;;10.16;97.67
16525;BME280;8375;33.594;-117.718;2022-12-07T04:43:54;100633.19;;;10.10;98.38
16525;BME280;8375;33.594;-117.718;2022-12-07T04:46:23;100637.25;;;10.15;98.68
16525;BME280;8375;33.594;-117.718;2022-12-07T04:48:52;100634.84;;;10.11;98.86
16525;BME280;8375;33.594;-117.718;2022-12-07T04:51:25;100629.34;;;10.03;98.72
16525;BME280;8375;33.594;-117.718;2022-12-07T04:53:55;100627.81;;;10.01;98.99
16525;BME280;8375;33.594;-117.718;2022-12-07T04:56:24;100629.56;;;10.00;98.80
16525;BME280;8375;33.594;-117.718;2022-12-07T04:58:54;100636.94;;;9.93;98.42
16525;BME280;8375;33.594;-117.718;2022-12-07T05:01:23;100633.72;;;9.90;98.68
16525;BME280;8375;33.594;-117.718;2022-12-07T05:03:52;100642.44;;;9.89;98.60
16525;BME280;8375;33.594;-117.718;2022-12-07T05:06:23;100643.78;;;9.81;98.79
16525;BME280;8375;33.594;-117.718;2022-12-07T05:08:52;100636.81;;;9.69;99.44
16525;BME280;8375;33.594;-117.718;2022-12-07T05:11:21;100636.59;;;9.72;99.18
16525;BME280;8375;33.594;-117.718;2022-12-07T05:14:08;100639.91;;;9.61;99.51
16525;BME280;8375;33.594;-117.718;2022-12-07T05:16:38;100646.03;;;9.60;99.75
16525;BME280;8375;33.594;-117.718;2022-12-07T05:19:08;100645.38;;;9.57;99.86
16525;BME280;8375;33.594;-117.718;2022-12-07T05:21:40;100652.63;;;9.51;100.00
16525;BME280;8375;33.594;-117.718;2022-12-07T05:24:11;100648.59;;;9.47;100.00
16525;BME280;8375;33.594;-117.718;2022-12-07T05:26:43;100652.03;;;9.48;100.00
16525;BME280;8375;33.594;-117.718;2022-12-07T05:29:15;100647.03;;;9.45;100.00
16525;BME280;8375;33.594;-117.718;2022-12-07T05:31:44;100656.75;;;9.41;100.00
16525;BME280;8375;33.594;-117.718;2022-12-07T05:34:14;100656.41;;;9.33;100.00
16525;BME280;8375;33.594;-117.718;2022-12-07T05:36:47;100660.06;;;9.30;100.00
16525;BME280;8375;33.594;-117.718;2022-12-07T05:39:18;100661.91;;;9.28;100.00
16525;BME280;8375;33.594;-117.718;2022-12-07T05:42:02;100660.97;;;9.29;100.00
16525;BME280;8375;33.594;-117.718;2022-12-07T05:44:41;100656.72;;;9.28;100.00
16525;BME280;8375;33.594;-117.718;2022-12-07T05:47:11;100659.41;;;9.27;100.00
16525;BME280;8375;33.594;-117.718;2022-12-07T05:49:40;100660.63;;;9.21;100.00
16525;BME280;8375;33.594;-117.718;2022-12-07T05:52:10;100663.22;;;9.21;100.00
16525;BME280;8375;33.594;-117.718;2022-12-07T05:54:39;100664.25;;;9.18;100.00
16525;BME280;8375;33.594;-117.718;2022-12-07T05:57:07;100669.53;;;9.17;100.00
16525;BME280;8375;33.594;-117.718;2022-12-07T05:59:37;100677.59;;;9.12;100.00
16525;BME280;8375;33.594;-117.718;2022-12-07T06:02:07;100680.41;;;8.94;100.00
16525;BME280;8375;33.594;-117.718;2022-12-07T06:04:38;100682.25;;;8.92;100.00
16525;BME280;8375;33.594;-117.718;2022-12-07T06:07:09;100677.91;;;8.93;100.00
16525;BME280;8375;33.594;-117.718;2022-12-07T06:09:42;100675.13;;;8.96;100.00
16525;BME280;8375;33.594;-117.718;2022-12-07T06:12:13;100668.66;;;9.03;100.00
16525;BME280;8375;33.594;-117.718;2022-12-07T06:14:59;100672.91;;;9.04;100.00
16525;BME280;8375;33.594;-117.718;2022-12-07T06:17:27;100680.56;;;9.06;100.00
16525;BME280;8375;33.594;-117.718;2022-12-07T06:19:57;100685.03;;;8.89;100.00
16525;BME280;8375;33.594;-117.718;2022-12-07T06:22:28;100687.34;;;8.94;100.00
16525;BME280;8375;33.594;-117.718;2022-12-07T06:24:57;100689.41;;;8.89;100.00
16525;BME280;8375;33.594;-117.718;2022-12-07T06:27:29;100685.19;;;9.01;100.00
16525;BME280;8375;33.594;-117.718;2022-12-07T06:29:59;100688.28;;;8.93;100.00
16525;BME280;8375;33.594;-117.718;2022-12-07T06:32:40;100691.69;;;8.93;100.00
16525;BME280;8375;33.594;-117.718;2022-12-07T06:35:12;100685.59;;;8.80;100.00
16525;BME280;8375;33.594;-117.718;2022-12-07T06:37:44;100688.19;;;8.80;100.00
16525;BME280;8375;33.594;-117.718;2022-12-07T06:40:13;100693.38;;;8.80;100.00
16525;BME280;8375;33.594;-117.718;2022-12-07T06:42:47;100695.78;;;8.69;100.00
16525;BME280;8375;33.594;-117.718;2022-12-07T06:45:17;100701.16;;;8.65;100.00
16525;BME280;8375;33.594;-117.718;2022-12-07T06:47:45;100700.78;;;8.72;100.00
16525;BME280;8375;33.594;-117.718;2022-12-07T06:50:16;100705.13;;;8.71;100.00
16525;BME280;8375;33.594;-117.718;2022-12-07T06:52:47;100701.81;;;8.69;100.00
16525;BME280;8375;33.594;-117.718;2022-12-07T06:55:19;100706.88;;;8.71;100.00
16525;BME280;8375;33.594;-117.718;2022-12-07T06:57:47;100705.31;;;8.68;100.00
16525;BME280;8375;33.594;-117.718;2022-12-07T07:00:17;100700.41;;;8.63;100.00
16525;BME280;8375;33.594;-117.718;2022-12-07T07:02:46;100705.88;;;8.59;100.00
16525;BME280;8375;33.594;-117.718;2022-12-07T07:05:14;100703.38;;;8.57;100.00
16525;BME280;8375;33.594;-117.718;2022-12-07T07:07:43;100701.81;;;8.55;100.00
16525;BME280;8375;33.594;-117.718;2022-12-07T07:10:14;100715.56;;;8.55;100.00
16525;BME280;8375;33.594;-117.718;2022-12-07T07:12:43;100712.03;;;8.85;100.00
16525;BME280;8375;33.594;-117.718;2022-12-07T07:15:12;100712.03;;;8.85;100.00
16525;BME280;8375;33.594;-117.718;2022-12-07T07:17:42;100714.94;;;8.80;100.00
16525;BME280;8375;33.594;-117.718;2022-12-07T07:20:15;100718.63;;;8.76;100.00
16525;BME280;8375;33.594;-117.718;2022-12-07T07:22:43;100711.13;;;8.72;100.00
16525;BME280;8375;33.594;-117.718;2022-12-07T07:25:14;100717.03;;;8.88;100.00
16525;BME280;8375;33.594;-117.718;2022-12-07T07:27:43;100714.75;;;8.69;100.00
16525;BME280;8375;33.594;-117.718;2022-12-07T07:30:13;100717.16;;;8.72;100.00
16525;BME280;8375;33.594;-117.718;2022-12-07T07:32:42;100707.44;;;8.76;100.00
16525;BME280;8375;33.594;-117.718;2022-12-07T07:35:12;100709.75;;;8.66;100.00
16525;BME280;8375;33.594;-117.718;2022-12-07T07:37:43;100709.03;;;8.49;100.00
16525;BME280;8375;33.594;-117.718;2022-12-07T07:40:14;100714.22;;;8.33;100.00
16525;BME280;8375;33.594;-117.718;2022-12-07T07:42:42;100711.75;;;8.32;100.00
16525;BME280;8375;33.594;-117.718;2022-12-07T07:45:11;100715.16;;;8.32;100.00
16525;BME280;8375;33.594;-117.718;2022-12-07T07:47:39;100712.09;;;8.26;100.00
16525;BME280;8375;33.594;-117.718;2022-12-07T07:50:09;100714.78;;;8.24;100.00
16525;BME280;8375;33.594;-117.718;2022-12-07T07:52:37;100711.09;;;8.28;100.00
16525;BME280;8375;33.594;-117.718;2022-12-07T07:55:06;100714.53;;;8.29;100.00
16525;BME280;8375;33.594;-117.718;2022-12-07T07:57:38;100714.97;;;8.35;100.00
16525;BME280;8375;33.594;-117.718;2022-12-07T08:00:09;100724.69;;;8.46;100.00
16525;BME280;8375;33.594;-117.718;2022-12-07T08:02:40;100721.28;;;8.75;100.00
16525;BME280;8375;33.594;-117.718;2022-12-07T08:05:09;100727.03;;;8.65;100.00
16525;BME280;8375;33.594;-117.718;2022-12-07T08:07:38;100725.53;;;8.76;100.00
16525;BME280;8375;33.594;-117.718;2022-12-07T08:10:10;100716.50;;;8.69;100.00
16525;BME280;8375;33.594;-117.718;2022-12-07T08:12:42;100710.22;;;8.58;100.00
16525;BME280;8375;33.594;-117.718;2022-12-07T08:15:25;100722.59;;;8.53;100.00
16525;BME280;8375;33.594;-117.718;2022-12-07T08:17:54;100715.94;;;8.63;100.00
16525;BME280;8375;33.594;-117.718;2022-12-07T08:20:23;100718.25;;;8.68;100.00
16525;BME280;8375;33.594;-117.718;2022-12-07T08:22:52;100715.75;;;8.52;100.00
16525;BME280;8375;33.594;-117.718;2022-12-07T08:25:20;100716.31;;;8.57;100.00
16525;BME280;8375;33.594;-117.718;2022-12-07T08:27:52;100716.69;;;8.65;100.00
16525;BME280;8375;33.594;-117.718;2022-12-07T08:30:21;100721.84;;;8.65;100.00
16525;BME280;8375;33.594;-117.718;2022-12-07T08:32:50;100725.09;;;8.69;100.00
16525;BME280;8375;33.594;-117.718;2022-12-07T08:35:20;100725.19;;;8.68;100.00
16525;BME280;8375;33.594;-117.718;2022-12-07T08:37:49;100728.94;;;8.47;100.00
16525;BME280;8375;33.594;-117.718;2022-12-07T08:40:18;100719.59;;;8.30;100.00
16525;BME280;8375;33.594;-117.718;2022-12-07T08:42:51;100719.94;;;8.24;100.00
16525;BME280;8375;33.594;-117.718;2022-12-07T08:45:20;100720.06;;;8.22;100.00
16525;BME280;8375;33.594;-117.718;2022-12-07T08:47:53;100721.97;;;8.19;100.00
16525;BME280;8375;33.594;-117.718;2022-12-07T08:50:24;100719.75;;;8.13;100.00
16525;BME280;8375;33.594;-117.718;2022-12-07T08:52:59;100720.22;;;8.19;100.00
16525;BME280;8375;33.594;-117.718;2022-12-07T08:55:29;100723.81;;;8.17;100.00
16525;BME280;8375;33.594;-117.718;2022-12-07T08:57:59;100726.72;;;8.27;100.00
16525;BME280;8375;33.594;-117.718;2022-12-07T09:00:29;100734.16;;;8.17;100.00
16525;BME280;8375;33.594;-117.718;2022-12-07T09:02:57;100728.69;;;8.07;100.00
16525;BME280;8375;33.594;-117.718;2022-12-07T09:05:26;100729.81;;;8.03;100.00
16525;BME280;8375;33.594;-117.718;2022-12-07T09:07:57;100721.19;;;8.02;100.00
16525;BME280;8375;33.594;-117.718;2022-12-07T09:10:28;100725.81;;;7.97;100.00
16525;BME280;8375;33.594;-117.718;2022-12-07T09:12:59;100735.66;;;7.90;100.00
16525;BME280;8375;33.594;-117.718;2022-12-07T09:15:28;100727.72;;;7.93;100.00
16525;BME280;8375;33.594;-117.718;2022-12-07T09:17:56;100731.69;;;8.15;100.00
16525;BME280;8375;33.594;-117.718;2022-12-07T09:20:25;100733.44;;;8.29;100.00
16525;BME280;8375;33.594;-117.718;2022-12-07T09:22:53;100732.50;;;8.16;100.00
16525;BME280;8375;33.594;-117.718;2022-12-07T09:25:22;100725.91;;;7.96;100.00
16525;BME280;8375;33.594;-117.718;2022-12-07T09:27:56;100732.09;;;7.77;100.00
16525;BME280;8375;33.594;-117.718;2022-12-07T09:30:27;100731.53;;;7.72;100.00
16525;BME280;8375;33.594;-117.718;2022-12-07T09:32:57;100726.78;;;7.64;100.00
16525;BME280;8375;33.594;-117.718;2022-12-07T09:35:25;100735.66;;;7.60;100.00
16525;BME280;8375;33.594;-117.718;2022-12-07T09:37:54;100732.56;;;7.53;100.00
16525;BME280;8375;33.594;-117.718;2022-12-07T09:40:23;100737.53;;;7.56;100.00
16525;BME280;8375;33.594;-117.718;2022-12-07T09:42:54;100735.97;;;7.54;100.00
16525;BME280;8375;33.594;-117.718;2022-12-07T09:45:24;100735.97;;;7.54;100.00
16525;BME280;8375;33.594;-117.718;2022-12-07T09:47:57;100730.06;;;7.52;100.00
16525;BME280;8375;33.594;-117.718;2022-12-07T09:50:28;100739.66;;;7.49;100.00
16525;BME280;8375;33.594;-117.718;2022-12-07T09:53:06;100735.13;;;7.53;100.00
16525;BME280;8375;33.594;-117.718;2022-12-07T09:55:36;100741.22;;;7.52;100.00
16525;BME280;8375;33.594;-117.718;2022-12-07T09:58:08;100738.97;;;7.46;100.00
16525;BME280;8375;33.594;-117.718;2022-12-07T10:00:40;100740.56;;;7.48;100.00
16525;BME280;8375;33.594;-117.718;2022-12-07T10:03:12;100740.06;;;7.58;100.00
16525;BME280;8375;33.594;-117.718;2022-12-07T10:05:45;100742.72;;;7.56;100.00
16525;BME280;8375;33.594;-117.718;2022-12-07T10:08:15;100743.91;;;7.51;100.00
16525;BME280;8375;33.594;-117.718;2022-12-07T10:10:48;100749.38;;;7.76;100.00
16525;BME280;8375;33.594;-117.718;2022-12-07T10:13:20;100747.03;;;7.72;100.00
16525;BME280;8375;33.594;-117.718;2022-12-07T10:15:52;100754.53;;;7.76;100.00
16525;BME280;8375;33.594;-117.718;2022-12-07T10:18:35;100751.25;;;7.89;100.00
16525;BME280;8375;33.594;-117.718;2022-12-07T10:21:10;100753.97;;;7.71;100.00
16525;BME280;8375;33.594;-117.718;2022-12-07T10:23:41;100754.97;;;7.53;100.00
16525;BME280;8375;33.594;-117.718;2022-12-07T10:26:29;100756.13;;;7.47;100.00
16525;BME280;8375;33.594;-117.718;2022-12-07T10:29:00;100758.41;;;7.37;100.00
16525;BME280;8375;33.594;-117.718;2022-12-07T10:31:30;100764.81;;;7.30;100.00
16525;BME280;8375;33.594;-117.718;2022-12-07T10:34:01;100760.56;;;7.29;100.00
16525;BME280;8375;33.594;-117.718;2022-12-07T10:36:36;100755.41;;;7.29;100.00
16525;BME280;8375;33.594;-117.718;2022-12-07T10:39:12;100753.06;;;7.24;100.00
16525;BME280;8375;33.594;-117.718;2022-12-07T10:41:53;100758.56;;;7.18;100.00
16525;BME280;8375;33.594;-117.718;2022-12-07T10:44:24;100745.31;;;7.40;100.00
16525;BME280;8375;33.594;-117.718;2022-12-07T10:47:05;100749.88;;;7.67;100.00
16525;BME280;8375;33.594;-117.718;2022-12-07T10:52:46;100746.47;;;7.34;100.00
16525;BME280;8375;33.594;-117.718;2022-12-07T10:55:23;100745.16;;;7.27;100.00
16525;BME280;8375;33.594;-117.718;2022-12-07T11:00:56;100747.56;;;7.14;100.00
16525;BME280;8375;33.594;-117.718;2022-12-07T11:03:37;100751.41;;;7.07;100.00
16525;BME280;8375;33.594;-117.718;2022-12-07T11:06:18;100757.38;;;7.08;100.00
16525;BME280;8375;33.594;-117.718;2022-12-07T11:09:00;100751.19;;;6.94;100.00
16525;BME280;8375;33.594;-117.718;2022-12-07T11:11:34;100750.53;;;6.90;100.00
16525;BME280;8375;33.594;-117.718;2022-12-07T11:14:14;100751.13;;;6.96;100.00
16525;BME280;8375;33.594;-117.718;2022-12-07T11:16:56;100747.81;;;6.94;100.00
16525;BME280;8375;33.594;-117.718;2022-12-07T11:22:25;100756.63;;;6.89;100.00
16525;BME280;8375;33.594;-117.718;2022-12-07T11:25:06;100757.38;;;7.08;100.00
16525;BME280;8375;33.594;-117.718;2022-12-07T11:27:48;100753.50;;;7.48;100.00
16525;BME280;8375;33.594;-117.718;2022-12-07T11:30:24;100756.31;;;7.44;100.00
16525;BME280;8375;33.594;-117.718;2022-12-07T11:33:06;100753.00;;;7.26;100.00
16525;BME280;8375;33.594;-117.718;2022-12-07T11:35:49;100760.97;;;7.05;100.00
16525;BME280;8375;33.594;-117.718;2022-12-07T11:38:29;100765.03;;;6.93;100.00
16525;BME280;8375;33.594;-117.718;2022-12-07T11:41:02;100764.69;;;6.99;100.00
16525;BME280;8375;33.594;-117.718;2022-12-07T11:43:52;100764.97;;;7.11;100.00
16525;BME280;8375;33.594;-117.718;2022-12-07T11:46:24;100766.84;;;6.91;100.00
16525;BME280;8375;33.594;-117.718;2022-12-07T11:49:00;100760.81;;;6.74;100.00
16525;BME280;8375;33.594;-117.718;2022-12-07T11:51:34;100765.44;;;6.85;100.00
16525;BME280;8375;33.594;-117.718;2022-12-07T11:54:12;100766.66;;;6.78;100.00
16525;BME280;8375;33.594;-117.718;2022-12-07T11:56:42;100753.81;;;6.60;100.00
16525;BME280;8375;33.594;-117.718;2022-12-07T11:59:15;100753.28;;;6.54;100.00
16525;BME280;8375;33.594;-117.718;2022-12-07T12:01:53;100754.63;;;6.61;100.00
16525;BME280;8375;33.594;-117.718;2022-12-07T12:04:32;100759.88;;;6.59;100.00
16525;BME280;8375;33.594;-117.718;2022-12-07T12:07:03;100769.19;;;6.62;100.00
16525;BME280;8375;33.594;-117.718;2022-12-07T12:09:41;100764.34;;;6.56;100.00
16525;BME280;8375;33.594;-117.718;2022-12-07T12:15:19;100767.31;;;6.66;100.00
16525;BME280;8375;33.594;-117.718;2022-12-07T12:18:16;100771.41;;;6.52;100.00
16525;BME280;8375;33.594;-117.718;2022-12-07T12:20:55;100782.19;;;6.43;100.00
16525;BME280;8375;33.594;-117.718;2022-12-07T12:23:27;100770.28;;;6.40;100.00
16525;BME280;8375;33.594;-117.718;2022-12-07T12:26:01;100771.28;;;6.38;100.00
16525;BME280;8375;33.594;-117.718;2022-12-07T12:28:37;100774.63;;;6.40;100.00
16525;BME280;8375;33.594;-117.718;2022-12-07T12:31:11;100777.19;;;6.57;100.00
16525;BME280;8375;33.594;-117.718;2022-12-07T12:33:44;100780.22;;;6.48;100.00
16525;BME280;8375;33.594;-117.718;2022-12-07T12:36:24;100781.75;;;6.52;100.00
16525;BME280;8375;33.594;-117.718;2022-12-07T12:39:12;100781.59;;;6.55;100.00
16525;BME280;8375;33.594;-117.718;2022-12-07T12:42:05;100782.34;;;6.57;100.00
16525;BME280;8375;33.594;-117.718;2022-12-07T12:47:55;100787.19;;;6.64;100.00
16525;BME280;8375;33.594;-117.718;2022-12-07T12:50:26;100782.78;;;6.66;100.00
16525;BME280;8375;33.594;-117.718;2022-12-07T12:53:12;100790.88;;;6.75;100.00
16525;BME280;8375;33.594;-117.718;2022-12-07T12:56:10;100798.72;;;6.74;100.00
16525;BME280;8375;33.594;-117.718;2022-12-07T12:58:47;100795.75;;;6.64;100.00
16525;BME280;8375;33.594;-117.718;2022-12-07T13:01:49;100800.56;;;6.88;100.00
16525;BME280;8375;33.594;-117.718;2022-12-07T13:04:49;100803.34;;;7.01;100.00
16525;BME280;8375;33.594;-117.718;2022-12-07T13:10:31;100810.66;;;6.93;100.00
16525;BME280;8375;33.594;-117.718;2022-12-07T13:13:04;100807.81;;;6.81;100.00
16525;BME280;8375;33.594;-117.718;2022-12-07T13:15:37;100806.72;;;6.85;100.00
16525;BME280;8375;33.594;-117.718;2022-12-07T13:18:23;100821.00;;;6.93;100.00